Terminal Aerodrome Forecast
Issued by NWS

Home | Current Version | Previous Version | Text Only | Print | Product List | Glossary On
Versions: 1 2 3 4 5 6 7 8 9 10 11 12 13 14 15 16 17 18 19 20 21 22 23
000
FTUS46 KMFR 051843 AAA
TAFOTH
TAF AMD
KOTH 051843Z 0519/0618 26007KT P6SM BKN012
     FM052000 24010KT P6SM SCT015 BKN080 OVC250
     FM060300 VRB03KT P6SM OVC008
     FM060800 VRB03KT P6SM OVC005
     FM061000 VRB03KT 3SM BR OVC002=

USA.gov is the U.S. government's official web portal to all federal, state and local government web resources and services.